createdAt,value
2023-05-13T00:01:10.769Z,6.93
2023-05-13T00:03:38.129Z,8.13
2023-05-13T00:06:04.949Z,5.18
2023-05-13T00:08:31.667Z,6.18
2023-05-13T00:10:58.272Z,4.93
2023-05-13T00:13:24.907Z,6.65
2023-05-13T00:15:51.481Z,6.80
2023-05-13T00:18:18.297Z,7.93
2023-05-13T00:20:45.041Z,9.18
2023-05-13T00:23:11.711Z,6.05
2023-05-13T00:25:38.440Z,6.45
2023-05-13T00:28:05.154Z,6.55
2023-05-13T00:30:31.716Z,11.38
2023-05-13T00:32:58.685Z,6.78
2023-05-13T00:35:25.435Z,4.70
2023-05-13T00:37:52.116Z,6.45
2023-05-13T00:40:23.869Z,5.55
2023-05-13T00:42:51.562Z,5.55
2023-05-13T00:45:18.570Z,5.72
2023-05-13T00:47:45.600Z,6.10
2023-05-13T00:50:13.575Z,8.63
2023-05-13T00:52:41.522Z,6.47
2023-05-13T00:55:09.546Z,7.20
2023-05-13T00:57:37.223Z,4.78
2023-05-13T01:00:05.857Z,7.72
2023-05-13T01:02:39.218Z,7.18
2023-05-13T01:05:38.350Z,5.70
2023-05-13T01:08:36.814Z,6.15
2023-05-13T01:11:03.418Z,6.63
2023-05-13T01:13:39.813Z,7.57
2023-05-13T01:16:06.596Z,7.35
2023-05-13T01:18:52.511Z,8.38
2023-05-13T01:21:26.929Z,7.70
2023-05-13T01:23:53.684Z,7.30
2023-05-13T01:26:22.375Z,8.30
2023-05-13T01:28:49.387Z,6.25
2023-05-13T01:31:16.194Z,7.07
2023-05-13T01:33:43.788Z,5.38
2023-05-13T01:36:10.571Z,10.27
2023-05-13T01:38:38.072Z,9.50
2023-05-13T01:41:04.766Z,5.82
2023-05-13T01:43:31.444Z,6.15
2023-05-13T01:46:00.638Z,8.98
2023-05-13T01:48:27.368Z,6.63
2023-05-13T01:50:55.122Z,8.27
2023-05-13T01:53:21.627Z,6.22
2023-05-13T01:55:48.105Z,6.70
2023-05-13T01:58:14.690Z,8.20
2023-05-13T02:00:41.293Z,7.72
2023-05-13T02:03:07.991Z,6.63
2023-05-13T02:05:34.713Z,6.97
2023-05-13T02:08:01.256Z,7.80
2023-05-13T02:10:27.873Z,11.35
2023-05-13T02:12:54.426Z,7.78
2023-05-13T02:15:21.086Z,7.05
2023-05-13T02:17:47.637Z,7.95
2023-05-13T02:20:14.755Z,6.15
2023-05-13T02:22:41.184Z,8.63
2023-05-13T02:25:08.329Z,7.50
2023-05-13T02:27:34.928Z,11.70
2023-05-13T02:30:01.506Z,9.27
2023-05-13T02:32:28.188Z,7.90
2023-05-13T02:34:54.761Z,5.70
2023-05-13T02:37:21.363Z,8.98
2023-05-13T02:39:47.874Z,7.82
2023-05-13T02:42:14.397Z,8.90
2023-05-13T02:44:41.461Z,8.32
2023-05-13T02:47:08.040Z,7.40
2023-05-13T02:49:34.618Z,9.20
2023-05-13T02:52:01.177Z,9.02
2023-05-13T02:54:28.243Z,8.45
2023-05-13T02:56:54.786Z,8.25
2023-05-13T02:59:21.328Z,9.00
2023-05-13T03:01:47.994Z,8.20
2023-05-13T03:04:14.682Z,9.48
2023-05-13T03:06:41.242Z,8.52
2023-05-13T03:09:07.772Z,9.95
2023-05-13T03:11:36.735Z,13.98
2023-05-13T03:14:03.339Z,10.77
2023-05-13T03:16:29.951Z,10.77
2023-05-13T03:18:56.584Z,7.88
2023-05-13T03:21:23.127Z,7.70
2023-05-13T03:23:49.719Z,7.93
2023-05-13T03:26:16.693Z,6.93
2023-05-13T03:28:43.350Z,8.85
2023-05-13T03:31:09.863Z,9.15
2023-05-13T03:33:36.529Z,7.25
2023-05-13T03:36:03.152Z,9.65
2023-05-13T03:38:29.648Z,9.15
2023-05-13T03:40:56.188Z,11.60
2023-05-13T03:43:22.857Z,8.98
2023-05-13T03:45:50.762Z,10.15
2023-05-13T03:48:17.717Z,9.23
2023-05-13T03:50:44.487Z,9.05
2023-05-13T03:53:11.928Z,7.47
2023-05-13T03:55:38.600Z,8.23
2023-05-13T03:58:15.561Z,7.63
2023-05-13T04:00:43.468Z,7.63
2023-05-13T04:03:10.460Z,7.07
2023-05-13T04:05:37.272Z,8.68
2023-05-13T04:08:04.001Z,12.82
2023-05-13T04:10:30.554Z,7.22
2023-05-13T04:12:57.041Z,9.93
2023-05-13T04:15:23.633Z,9.35
2023-05-13T04:17:51.103Z,11.85
2023-05-13T04:20:18.035Z,7.88
2023-05-13T04:22:44.541Z,8.07
2023-05-13T04:25:11.482Z,7.13
2023-05-13T04:27:37.916Z,8.50
2023-05-13T04:30:05.034Z,7.63
2023-05-13T04:32:31.919Z,6.82
2023-05-13T04:34:58.762Z,13.85
2023-05-13T04:37:25.556Z,9.32
2023-05-13T04:39:52.196Z,8.95
2023-05-13T04:42:18.735Z,9.18
2023-05-13T04:44:45.330Z,7.40
2023-05-13T04:47:11.973Z,9.90
2023-05-13T04:49:38.468Z,7.85
2023-05-13T04:52:06.493Z,7.72
2023-05-13T04:54:35.442Z,8.75
2023-05-13T04:57:02.740Z,13.60
2023-05-13T04:59:29.346Z,8.77
2023-05-13T05:01:56.211Z,8.55
2023-05-13T05:04:22.862Z,9.05
2023-05-13T05:06:49.440Z,8.05
2023-05-13T05:09:16.100Z,11.05
2023-05-13T05:11:42.646Z,8.00
2023-05-13T05:14:09.210Z,9.57
2023-05-13T05:16:35.876Z,7.60
2023-05-13T05:19:02.534Z,12.80
2023-05-13T05:21:29.170Z,10.98
2023-05-13T05:23:55.772Z,8.40
2023-05-13T05:26:22.370Z,9.57
2023-05-13T05:28:49.006Z,7.47
2023-05-13T05:31:15.637Z,9.57
2023-05-13T05:33:42.472Z,7.72
2023-05-13T05:36:09.152Z,8.63
2023-05-13T05:38:36.121Z,10.25
2023-05-13T05:41:02.760Z,10.45
2023-05-13T05:43:29.399Z,8.10
2023-05-13T05:45:56.021Z,8.73
2023-05-13T05:48:22.614Z,9.82
2023-05-13T05:50:49.367Z,9.13
2023-05-13T05:53:15.983Z,10.73
2023-05-13T05:55:42.637Z,8.13
2023-05-13T05:58:10.186Z,9.00
2023-05-13T06:00:36.759Z,7.70
2023-05-13T06:03:03.489Z,9.98
2023-05-13T06:05:30.243Z,15.10
2023-05-13T06:07:56.961Z,9.80
2023-05-13T06:10:23.858Z,8.40
2023-05-13T06:12:51.413Z,10.52
2023-05-13T06:15:17.956Z,9.50
2023-05-13T06:17:44.555Z,10.20
2023-05-13T06:20:11.693Z,11.18
2023-05-13T06:22:38.306Z,12.10
2023-05-13T06:25:05.533Z,9.70
2023-05-13T06:30:01.465Z,7.13
2023-05-13T06:32:27.993Z,9.68
2023-05-13T06:34:55.953Z,8.50
2023-05-13T06:37:22.756Z,8.50
2023-05-13T06:39:49.548Z,9.95
2023-05-13T06:42:16.130Z,8.82
2023-05-13T06:44:42.545Z,7.13
2023-05-13T06:47:11.910Z,7.85
2023-05-13T06:49:38.472Z,10.30
2023-05-13T06:52:05.280Z,9.65
2023-05-13T06:54:32.061Z,7.63
2023-05-13T06:56:58.601Z,8.45
2023-05-13T06:59:25.322Z,8.80
2023-05-13T07:01:51.884Z,7.55
2023-05-13T07:04:18.403Z,8.18
2023-05-13T07:06:44.974Z,7.55
2023-05-13T07:09:11.505Z,9.52
2023-05-13T07:11:38.029Z,10.65
2023-05-13T07:14:04.576Z,7.57
2023-05-13T07:16:31.031Z,8.13
2023-05-13T07:18:57.655Z,8.63
2023-05-13T07:21:24.188Z,10.77
2023-05-13T07:23:50.739Z,7.57
2023-05-13T07:26:17.255Z,10.30
2023-05-13T07:28:43.792Z,10.38
2023-05-13T07:31:10.457Z,8.05
2023-05-13T07:33:37.111Z,9.35
2023-05-13T07:36:03.915Z,8.60
2023-05-13T07:38:30.360Z,7.95
2023-05-13T07:40:56.887Z,9.23
2023-05-13T07:43:27.823Z,6.53
2023-05-13T07:45:54.415Z,7.40
2023-05-13T07:48:20.910Z,6.65
2023-05-13T07:50:47.717Z,10.20
2023-05-13T07:53:14.321Z,6.07
2023-05-13T07:55:41.389Z,9.13
2023-05-13T07:58:07.802Z,6.05
2023-05-13T08:00:34.291Z,7.65
2023-05-13T08:03:00.910Z,10.23
2023-05-13T08:05:27.564Z,11.35
2023-05-13T08:07:54.052Z,7.95
2023-05-13T08:10:21.127Z,6.80
2023-05-13T08:12:52.110Z,12.25
2023-05-13T08:15:19.162Z,9.35
2023-05-13T08:17:45.765Z,11.60
2023-05-13T08:20:12.448Z,7.28
2023-05-13T08:22:38.928Z,7.50
2023-05-13T08:25:05.902Z,8.95
2023-05-13T08:27:32.441Z,7.53
2023-05-13T08:29:58.949Z,10.40
2023-05-13T08:32:25.575Z,8.75
2023-05-13T08:34:52.161Z,6.90
2023-05-13T08:37:18.731Z,7.63
2023-05-13T08:39:45.734Z,6.65
2023-05-13T08:42:15.144Z,10.05
2023-05-13T08:44:43.711Z,9.13
2023-05-13T08:47:44.073Z,10.23
2023-05-13T08:50:12.549Z,10.40
2023-05-13T08:52:39.868Z,8.60
2023-05-13T08:55:08.179Z,12.90
2023-05-13T08:57:34.700Z,6.15
2023-05-13T09:00:01.334Z,6.63
2023-05-13T09:02:27.927Z,8.48
2023-05-13T09:04:56.103Z,8.73
2023-05-13T09:07:22.758Z,7.60
2023-05-13T09:09:49.896Z,9.07
2023-05-13T09:12:58.267Z,8.45
2023-05-13T09:15:26.552Z,7.75
2023-05-13T09:18:11.593Z,8.00
2023-05-13T09:20:38.531Z,7.80
2023-05-13T09:23:10.738Z,8.23
2023-05-13T09:25:38.556Z,12.98
2023-05-13T09:28:07.723Z,7.38
2023-05-13T09:30:40.240Z,6.20
2023-05-13T09:33:09.462Z,5.35
2023-05-13T09:35:38.059Z,6.03
2023-05-13T09:38:14.725Z,7.40
2023-05-13T09:40:42.111Z,6.75
2023-05-13T09:43:08.687Z,8.65
2023-05-13T09:45:36.319Z,8.23
2023-05-13T09:48:03.132Z,7.10
2023-05-13T09:50:31.582Z,7.95
2023-05-13T09:52:58.116Z,5.75
2023-05-13T09:55:24.596Z,5.15
2023-05-13T09:57:53.367Z,10.27
2023-05-13T10:00:29.240Z,6.07
2023-05-13T10:03:01.243Z,5.45
2023-05-13T10:05:27.882Z,7.50
2023-05-13T10:07:55.545Z,7.65
2023-05-13T10:10:22.371Z,11.60
2023-05-13T10:12:50.623Z,6.53
2023-05-13T10:15:19.101Z,10.20
2023-05-13T10:17:46.986Z,6.40
2023-05-13T10:20:14.652Z,9.55
2023-05-13T10:22:41.909Z,5.05
2023-05-13T10:25:09.214Z,9.25
2023-05-13T10:27:35.840Z,5.10
2023-05-13T10:30:05.869Z,7.32
2023-05-13T10:32:32.562Z,4.75
2023-05-13T10:35:17.508Z,5.15
2023-05-13T10:38:02.834Z,5.72
2023-05-13T10:40:44.617Z,4.45
2023-05-13T10:43:32.765Z,6.00
2023-05-13T10:46:06.600Z,4.32
2023-05-13T10:48:43.539Z,4.95
2023-05-13T10:51:14.461Z,6.05
2023-05-13T10:53:47.895Z,5.40
2023-05-13T10:56:15.521Z,3.78
2023-05-13T10:58:42.308Z,4.63
2023-05-13T11:01:16.317Z,4.50
2023-05-13T11:03:52.328Z,4.88
2023-05-13T11:06:24.529Z,5.22
2023-05-13T11:08:55.756Z,3.25
2023-05-13T11:11:28.771Z,4.60
2023-05-13T11:16:25.783Z,5.93
2023-05-13T11:18:53.209Z,2.80
2023-05-13T11:21:31.037Z,2.90
2023-05-13T11:23:58.601Z,3.28
2023-05-13T11:26:25.607Z,3.22
2023-05-13T11:28:57.741Z,4.57
2023-05-13T11:31:26.039Z,5.75
2023-05-13T11:34:12.100Z,3.60
2023-05-13T11:36:40.482Z,3.33
2023-05-13T11:39:14.362Z,2.92
2023-05-13T11:41:43.499Z,4.90
2023-05-13T11:44:11.825Z,2.72
2023-05-13T11:46:38.337Z,8.77
2023-05-13T11:49:07.257Z,3.30
2023-05-13T11:51:34.443Z,3.47
2023-05-13T11:54:04.565Z,5.00
2023-05-13T11:56:31.223Z,3.45
2023-05-13T11:59:14.678Z,3.80
2023-05-13T12:01:41.537Z,3.75
2023-05-13T12:04:08.664Z,4.35
2023-05-13T12:06:35.711Z,4.00
2023-05-13T12:09:06.759Z,3.53
2023-05-13T12:11:33.920Z,2.25
2023-05-13T12:14:01.154Z,2.65
2023-05-13T12:16:28.118Z,3.47
2023-05-13T12:19:06.867Z,9.25
2023-05-13T12:21:34.669Z,5.30
2023-05-13T12:24:01.253Z,3.17
2023-05-13T12:26:27.844Z,2.90
2023-05-13T12:31:24.376Z,5.05
2023-05-13T12:33:51.573Z,2.53
2023-05-13T12:36:20.680Z,4.88
2023-05-13T12:39:01.476Z,2.53
2023-05-13T12:41:36.180Z,3.03
2023-05-13T12:44:10.629Z,2.83
2023-05-13T12:46:37.581Z,2.97
2023-05-13T12:49:05.801Z,3.55
2023-05-13T12:51:35.642Z,4.40
2023-05-13T12:54:02.248Z,4.95
2023-05-13T12:56:28.664Z,5.32
2023-05-13T12:58:55.286Z,3.38
2023-05-13T13:01:22.385Z,4.63
2023-05-13T13:03:49.174Z,2.03
2023-05-13T13:06:15.896Z,2.80
2023-05-13T13:08:42.393Z,3.40
2023-05-13T13:11:09.315Z,2.35
2023-05-13T13:13:38.101Z,3.22
2023-05-13T13:16:06.180Z,3.30
2023-05-13T13:18:32.706Z,2.90
2023-05-13T13:20:59.167Z,4.95
2023-05-13T13:23:25.710Z,3.17
2023-05-13T13:25:52.202Z,2.83
2023-05-13T13:28:18.781Z,6.80
2023-05-13T13:30:48.429Z,5.00
2023-05-13T13:33:16.173Z,5.75
2023-05-13T13:35:44.445Z,3.20
2023-05-13T13:38:11.078Z,4.80
2023-05-13T13:40:37.543Z,2.75
2023-05-13T13:43:05.676Z,6.25
2023-05-13T13:45:32.266Z,2.45
2023-05-13T13:47:59.361Z,3.53
2023-05-13T13:50:26.213Z,3.88
2023-05-13T13:52:52.741Z,3.55
2023-05-13T13:55:23.277Z,4.15
2023-05-13T13:57:50.692Z,3.67
2023-05-13T14:00:17.351Z,3.05
2023-05-13T14:02:44.113Z,3.40
2023-05-13T14:05:11.593Z,2.08
2023-05-13T14:07:38.146Z,4.18
2023-05-13T14:10:05.915Z,1.98
2023-05-13T14:12:32.537Z,4.68
2023-05-13T14:14:59.762Z,3.47
2023-05-13T14:17:26.291Z,4.47
2023-05-13T14:19:55.049Z,3.42
2023-05-13T14:22:24.840Z,3.25
2023-05-13T14:24:52.294Z,3.30
2023-05-13T14:27:19.627Z,2.42
2023-05-13T14:29:47.577Z,4.55
2023-05-13T14:32:14.609Z,5.93
2023-05-13T14:34:41.236Z,3.17
2023-05-13T14:37:07.777Z,2.80
2023-05-13T14:39:34.508Z,2.78
2023-05-13T14:42:01.590Z,3.17
2023-05-13T14:44:28.226Z,3.92
2023-05-13T14:46:55.051Z,4.43
2023-05-13T14:49:21.656Z,3.22
2023-05-13T14:51:48.149Z,4.40
2023-05-13T14:54:14.572Z,3.75
2023-05-13T14:56:41.535Z,2.50
2023-05-13T14:59:08.275Z,2.92
2023-05-13T15:01:34.808Z,6.65
2023-05-13T15:04:01.502Z,3.10
2023-05-13T15:06:29.107Z,3.15
2023-05-13T15:08:56.437Z,2.80
2023-05-13T15:11:23.183Z,3.42
2023-05-13T15:13:49.732Z,2.70
2023-05-13T15:16:16.245Z,2.83
2023-05-13T15:18:42.925Z,2.25
2023-05-13T15:21:09.463Z,3.33
2023-05-13T15:23:35.984Z,4.72
2023-05-13T15:26:02.492Z,2.78
2023-05-13T15:28:29.157Z,3.35
2023-05-13T15:30:55.927Z,3.40
2023-05-13T15:33:22.405Z,3.70
2023-05-13T15:35:48.976Z,6.03
2023-05-13T15:38:15.402Z,4.70
2023-05-13T15:40:41.863Z,4.80
2023-05-13T15:43:08.331Z,2.75
2023-05-13T15:45:34.834Z,3.22
2023-05-13T15:48:01.253Z,3.28
2023-05-13T15:50:27.775Z,4.00
2023-05-13T15:52:54.722Z,2.40
2023-05-13T15:55:22.178Z,2.88
2023-05-13T15:57:50.300Z,4.05
2023-05-13T16:00:17.963Z,5.40
2023-05-13T16:02:44.667Z,4.82
2023-05-13T16:05:11.945Z,3.85
2023-05-13T16:07:38.432Z,3.50
2023-05-13T16:10:05.152Z,5.15
2023-05-13T16:12:31.588Z,5.28
2023-05-13T16:14:57.993Z,3.50
2023-05-13T16:17:24.469Z,2.90
2023-05-13T16:19:51.012Z,5.85
2023-05-13T16:22:29.065Z,5.05
2023-05-13T16:25:00.767Z,3.15
2023-05-13T16:27:28.279Z,4.47
2023-05-13T16:29:56.169Z,3.53
2023-05-13T16:32:22.992Z,6.68
2023-05-13T16:34:49.670Z,4.50
2023-05-13T16:37:16.218Z,3.53
2023-05-13T16:39:42.808Z,4.85
2023-05-13T16:42:09.578Z,5.00
2023-05-13T16:44:36.095Z,4.10
2023-05-13T16:47:02.819Z,4.93
2023-05-13T16:49:29.448Z,4.90
2023-05-13T16:51:55.959Z,4.13
2023-05-13T16:54:22.384Z,6.45
2023-05-13T16:56:50.417Z,7.50
2023-05-13T16:59:24.487Z,8.90
2023-05-13T17:01:52.358Z,5.18
2023-05-13T17:04:19.818Z,6.40
2023-05-13T17:06:46.394Z,3.15
2023-05-13T17:09:12.966Z,3.70
2023-05-13T17:11:39.586Z,2.75
2023-05-13T17:14:06.498Z,3.28
2023-05-13T17:16:33.472Z,3.45
2023-05-13T17:19:00.119Z,3.95
2023-05-13T17:21:26.809Z,3.50
2023-05-13T17:23:53.500Z,3.63
2023-05-13T17:26:21.695Z,3.38
2023-05-13T17:28:48.935Z,3.97
2023-05-13T17:31:15.503Z,3.20
2023-05-13T17:33:42.124Z,5.20
2023-05-13T17:36:08.749Z,2.90
2023-05-13T17:38:35.261Z,3.28
2023-05-13T17:41:01.865Z,3.47
2023-05-13T17:43:28.390Z,3.45
2023-05-13T17:45:54.850Z,4.75
2023-05-13T17:48:21.463Z,4.30
2023-05-13T17:50:48.013Z,3.13
2023-05-13T17:53:14.556Z,5.88
2023-05-13T17:55:41.065Z,5.88
2023-05-13T17:58:07.573Z,5.65
2023-05-13T18:00:34.076Z,5.88
2023-05-13T18:03:00.735Z,3.45
2023-05-13T18:05:27.597Z,2.70
2023-05-13T18:07:54.241Z,6.30
2023-05-13T18:10:21.193Z,4.32
2023-05-13T18:12:48.014Z,5.68
2023-05-13T18:15:14.636Z,4.20
2023-05-13T18:17:41.215Z,3.22
2023-05-13T18:20:08.354Z,4.93
2023-05-13T18:22:35.018Z,3.80
2023-05-13T18:25:01.563Z,4.10
2023-05-13T18:27:28.122Z,3.90
